Opportunity — WDJ5813 — position and weather

sailwx.info

Track history (hours):
 
Tides and Currents Weather Stations Pressure Air Temp Water Temp Dewpoint Dewpoint Depression Visibility Wind Speed Wind Dir Waves Ship Positions

Opportunity

Owner: HNY Ferry Fleet LLC, New York, NY. More information available from US FCC via Universal Licensing System and Coast Guard Vessel Documentation Center.

Last reported at 2018-Feb-23 00:30 UTC. Time now 2018-Feb-23 00:50 UTC.
Position N 40°34' W 073°57'.

Length 26 m; draft 2 m.

Type: Passenger vessel. MMSI: 367791540.

Date/timePositionNaut miles runAvg speedWind from/ knotsBaromVisibWave heightAir tempDewpointWater temp
2018-Feb-23 00:30N 40°34' W 073°57'3 6.7
2018-Feb-23 00:00N 40°34' W 073°53'815.8
2018-Feb-22 23:30N 40°39' W 074°02'1 2.4
2018-Feb-22 23:00N 40°40' W 074°01'713.7
2018-Feb-22 22:30N 40°34' W 073°57'3 5.0
2018-Feb-22 21:58N 40°34' W 073°53'816.7
2018-Feb-22 21:30N 40°39' W 074°02'1 1.1
2018-Feb-22 21:01N 40°39' W 074°02'714.4
2018-Feb-22 20:30N 40°34' W 073°55'2 3.4
2018-Feb-22 20:00N 40°34' W 073°53'816.1
2018-Feb-22 19:30N 40°39' W 074°02'1 2.4
2018-Feb-22 19:01N 40°40' W 074°01'713.3
2018-Feb-22 18:30N 40°34' W 073°58'3 5.6
2018-Feb-22 18:00N 40°34' W 073°54'815.4
2018-Feb-22 17:30N 40°39' W 074°02'1 2.6
2018-Feb-22 17:01N 40°40' W 074°01'814.0
2018-Feb-22 16:28N 40°34' W 073°56'3 5.4
2018-Feb-22 16:00N 40°35' W 073°53'815.9
2018-Feb-22 15:30N 40°39' W 074°02'2 3.4
2018-Feb-22 15:01N 40°40' W 074°01'714.6
2018-Feb-22 14:30N 40°34' W 073°57'2 4.3
2018-Feb-22 13:59N 40°34' W 073°54'715.3
2018-Feb-22 13:30N 40°39' W 074°02'1 2.3
2018-Feb-22 13:01N 40°40' W 074°01'714.1
2018-Feb-22 12:30N 40°34' W 073°56'4 7.2
2018-Feb-22 12:00N 40°35' W 073°52'816.5
2018-Feb-22 11:30N 40°39' W 074°02'0 0.9
2018-Feb-22 11:00N 40°39' W 074°02'815.1
2018-Feb-22 10:30N 40°34' W 073°54'5 9.8
2018-Feb-22 10:00N 40°34' W 074°00'816.0
2018-Feb-22 09:30N 40°42' W 073°58'0 0.0
2018-Feb-22 03:20N 40°42' W 073°58'410.8
2018-Feb-22 03:00N 40°46' W 073°57'1 1.5
2018-Feb-22 02:30N 40°45' W 073°58'3 5.2
2018-Feb-22 02:00N 40°42' W 073°58'1 2.9
2018-Feb-22 01:31N 40°42' W 074°00'4 8.1
2018-Feb-22 01:00N 40°46' W 073°57'1 2.7
2018-Feb-22 00:30N 40°45' W 073°58'2 3.8
2018-Feb-22 00:00N 40°43' W 073°58'4 7.8
2018-Feb-21 23:30N 40°46' W 073°56'3 5.1
2018-Feb-21 23:00N 40°44' W 073°58'3 5.3
2018-Feb-21 22:31N 40°42' W 074°00'4 7.9
2018-Feb-21 22:00N 40°45' W 073°57'1 1.1
2018-Feb-21 21:30N 40°45' W 073°57'3 7.0
2018-Feb-21 21:01N 40°42' W 074°00'5 9.7
2018-Feb-21 20:29N 40°46' W 073°56'2 4.2
2018-Feb-21 20:01N 40°45' W 073°58'3 5.0
2018-Feb-21 19:31N 40°42' W 073°59'1 1.6
2018-Feb-21 19:00N 40°42' W 074°00'4 7.8
2018-Feb-21 18:30N 40°45' W 073°57'1 2.2
2018-Feb-21 18:00N 40°45' W 073°58'3 6.0
2018-Feb-21 17:30N 40°42' W 074°00'1 1.1
2018-Feb-21 17:00N 40°42' W 073°60'4 7.9
2018-Feb-21 16:30N 40°46' W 073°57'1 3.0
2018-Feb-21 16:01N 40°45' W 073°58'3 6.1
2018-Feb-21 15:30N 40°42' W 074°00'0 0.3
2018-Feb-21 15:01N 40°42' W 074°00'4 8.0
2018-Feb-21 14:30N 40°45' W 073°57'1 2.4
2018-Feb-21 14:00N 40°45' W 073°58'4 7.4
2018-Feb-21 13:31N 40°41' W 074°00'4 8.3
2018-Feb-21 13:00N 40°45' W 073°57'0 0.8
2018-Feb-21 12:30N 40°45' W 073°58'3 6.5
2018-Feb-21 12:00N 40°42' W 073°58'0 0.0
2018-Feb-21 11:30N 40°42' W 073°58'0 0.0
2018-Feb-20 21:47N 40°42' W 073°58'0 0.0
2018-Feb-20 21:31N 40°42' W 073°58'0 0.3
2018-Feb-20 21:01N 40°42' W 073°58'  
2018-Feb-16 02:57N 40°42' W 073°58'817.8
2018-Feb-16 02:30N 40°34' W 074°01'510.0
2018-Feb-16 01:59N 40°34' W 073°54'716.0
2018-Feb-16 01:30N 40°39' W 074°02'1 2.8
2018-Feb-16 01:01N 40°40' W 074°01'814.7
2018-Feb-16 00:30N 40°34' W 073°56'1 2.4
2018-Feb-15 23:59N 40°34' W 073°54'715.4
2018-Feb-15 23:30N 40°39' W 074°02'2 3.1
2018-Feb-15 23:00N 40°40' W 074°01'714.3
2018-Feb-15 22:29N 40°34' W 073°57'2 3.5
2018-Feb-15 21:58N 40°34' W 073°54'716.1
2018-Feb-15 21:31N 40°39' W 074°02'1 2.4
2018-Feb-15 21:01N 40°40' W 074°01'714.0
2018-Feb-15 20:30N 40°34' W 073°56'3 6.2
2018-Feb-15 19:59N 40°35' W 073°52'816.9
2018-Feb-15 19:30N 40°39' W 074°02'1 3.0
2018-Feb-15 19:01N 40°40' W 074°01'714.1
2018-Feb-15 18:30N 40°34' W 073°57'3 6.7
2018-Feb-15 17:59N 40°35' W 073°53'816.4
2018-Feb-15 17:30N 40°39' W 074°02'1 2.3
2018-Feb-15 17:01N 40°40' W 074°01'714.2
2018-Feb-15 16:29N 40°34' W 073°56'2 4.3
2018-Feb-15 16:00N 40°34' W 073°53'815.8
2018-Feb-15 15:31N 40°39' W 074°02'1 2.2
2018-Feb-15 15:01N 40°40' W 074°01'714.0
2018-Feb-15 14:29N 40°34' W 073°56'1 2.3
2018-Feb-15 14:00N 40°34' W 073°54'714.3
2018-Feb-15 13:30N 40°39' W 074°02'1 2.0
2018-Feb-15 13:01N 40°40' W 074°01'713.7
2018-Feb-15 12:29N 40°34' W 073°56'2 4.2
2018-Feb-15 12:01N 40°34' W 073°53'815.3
2018-Feb-15 11:30N 40°39' W 074°02'1 2.8
2018-Feb-15 11:01N 40°40' W 074°01'714.7
2018-Feb-15 10:30N 40°34' W 073°56'2 4.0
2018-Feb-15 10:00N 40°34' W 073°54'816.3
2018-Feb-15 09:31N 40°40' W 074°01'3 6.6
2018-Feb-15 09:00N 40°42' W 073°58'0 0.0
2018-Feb-15 02:57N 40°42' W 073°58'817.1
2018-Feb-15 02:29N 40°34' W 074°00'713.5
2018-Feb-15 02:00N 40°35' W 073°52'817.3
2018-Feb-15 01:30N 40°39' W 074°02'1 2.5
2018-Feb-15 01:01N 40°40' W 074°01'714.0
2018-Feb-15 00:29N 40°34' W 073°56'2 5.3
2018-Feb-15 00:00N 40°34' W 073°53'815.9
2018-Feb-14 23:31N 40°39' W 074°02'1 2.4
2018-Feb-14 23:01N 40°40' W 074°01'714.2
2018-Feb-14 22:30N 40°34' W 073°57'4 7.0
2018-Feb-14 22:00N 40°35' W 073°52'816.3
2018-Feb-14 21:29N 40°39' W 074°02'4 7.4
2018-Feb-14 21:01N 40°42' W 074°00'2 3.1
2018-Feb-14 20:31N 40°42' W 073°58'0 0.0
2018-Feb-14 20:00N 40°42' W 073°58'0 0.0
2018-Feb-14 19:31N 40°42' W 073°58'0 0.0
2018-Feb-14 19:01N 40°42' W 073°58'0 0.0
2018-Feb-14 18:31N 40°42' W 073°58'0 0.0
2018-Feb-14 18:00N 40°42' W 073°58'0 0.0
2018-Feb-14 17:31N 40°42' W 073°58'0 0.0
2018-Feb-14 17:00N 40°42' W 073°58'0 0.0
2018-Feb-14 16:30N 40°42' W 073°58'0 0.4
2018-Feb-14 16:01N 40°42' W 073°58'4 8.3
2018-Feb-14 15:30N 40°39' W 074°02'1 2.8
2018-Feb-14 15:01N 40°40' W 074°01'713.9
2018-Feb-14 14:30N 40°34' W 073°57'3 5.2
2018-Feb-14 14:00N 40°34' W 073°54'715.2
2018-Feb-14 13:31N 40°39' W 074°02'2 3.0
2018-Feb-14 13:01N 40°40' W 074°01'714.5
2018-Feb-14 12:30N 40°34' W 073°57'2 4.9
2018-Feb-14 12:00N 40°34' W 073°53'815.7
2018-Feb-14 11:30N 40°39' W 074°02'1 2.7
2018-Feb-14 11:00N 40°40' W 074°01'714.4
2018-Feb-14 10:30N 40°34' W 073°56'3 6.2
2018-Feb-14 10:00N 40°35' W 073°52'817.2
2018-Feb-14 09:31N 40°40' W 074°01'3 6.6
2018-Feb-14 09:00N 40°42' W 073°58'0 0.0
2018-Feb-14 03:03N 40°42' W 073°58'0 0.0
2018-Feb-14 03:00N 40°42' W 073°58'714.3
2018-Feb-14 02:30N 40°35' W 074°02'714.3
2018-Feb-14 01:59N 40°35' W 073°52'817.4
2018-Feb-14 01:30N 40°39' W 074°02'1 3.0
2018-Feb-14 01:01N 40°40' W 074°01'714.3
2018-Feb-14 00:30N 40°34' W 073°57'2 3.9
2018-Feb-14 00:00N 40°34' W 073°54'714.3
2018-Feb-13 23:30N 40°39' W 074°02'2 3.5
2018-Feb-13 23:01N 40°40' W 074°01'814.9
2018-Feb-13 22:29N 40°34' W 073°56'1 1.3
2018-Feb-13 22:00N 40°34' W 073°55'713.9
2018-Feb-13 21:30N 40°39' W 074°02'1 2.9
2018-Feb-13 21:01N 40°40' W 074°01'815.0
2018-Feb-13 20:30N 40°34' W 073°56'2 4.4
2018-Feb-13 20:00N 40°34' W 073°53'814.9
2018-Feb-13 19:29N 40°39' W 074°02'2 3.1
2018-Feb-13 19:00N 40°40' W 074°01'814.8
2018-Feb-13 18:29N 40°34' W 073°56'2 3.3
2018-Feb-13 18:00N 40°34' W 073°54'715.2
2018-Feb-13 17:31N 40°39' W 074°02'1 2.4
2018-Feb-13 17:00N 40°40' W 074°01'714.0
2018-Feb-13 16:28N 40°34' W 073°56'2 5.2
2018-Feb-13 16:00N 40°35' W 073°52'816.3
2018-Feb-13 15:30N 40°39' W 074°02'1 2.3
2018-Feb-13 15:00N 40°40' W 074°01'713.7
2018-Feb-13 14:30N 40°34' W 073°57'3 5.2
2018-Feb-13 14:00N 40°34' W 073°54'714.7
2018-Feb-13 13:30N 40°39' W 074°02'0 0.8
2018-Feb-13 13:01N 40°39' W 074°02'713.6
2018-Feb-13 12:29N 40°34' W 073°56'0 0.1
2018-Feb-13 12:00N 40°34' W 073°56'714.3
2018-Feb-13 11:31N 40°39' W 074°02'1 1.9
2018-Feb-13 11:00N 40°40' W 074°01'714.8
2018-Feb-13 10:30N 40°34' W 073°55'3 5.9
2018-Feb-13 10:00N 40°34' W 073°59'816.7
2018-Feb-13 09:31N 40°42' W 073°58'0 0.0
2018-Feb-13 09:00N 40°42' W 073°58'  
Track history (hours):
 
Tides and Currents Weather Stations Pressure Air Temp Water Temp Dewpoint Dewpoint Depression Visibility Wind Speed Wind Dir Waves Ship Positions

Opportunity

Owner: HNY Ferry Fleet LLC, New York, NY. More information available from US FCC via Universal Licensing System and Coast Guard Vessel Documentation Center.

Last reported at 2018-Feb-23 00:30 UTC. Time now 2018-Feb-23 00:50 UTC.
Position N 40°34' W 073°57'.

Length 26 m; draft 2 m.

Type: Passenger vessel. MMSI: 367791540.

Date/timePositionNaut miles runAvg speedWind from/ knotsBaromVisibWave heightAir tempDewpointWater temp
2018-Feb-23 00:30N 40°34' W 073°57'3 6.7
2018-Feb-23 00:00N 40°34' W 073°53'815.8
2018-Feb-22 23:30N 40°39' W 074°02'1 2.4
2018-Feb-22 23:00N 40°40' W 074°01'713.7
2018-Feb-22 22:30N 40°34' W 073°57'3 5.0
2018-Feb-22 21:58N 40°34' W 073°53'816.7
2018-Feb-22 21:30N 40°39' W 074°02'1 1.1
2018-Feb-22 21:01N 40°39' W 074°02'714.4
2018-Feb-22 20:30N 40°34' W 073°55'2 3.4
2018-Feb-22 20:00N 40°34' W 073°53'816.1
2018-Feb-22 19:30N 40°39' W 074°02'1 2.4
2018-Feb-22 19:01N 40°40' W 074°01'713.3
2018-Feb-22 18:30N 40°34' W 073°58'3 5.6
2018-Feb-22 18:00N 40°34' W 073°54'815.4
2018-Feb-22 17:30N 40°39' W 074°02'1 2.6
2018-Feb-22 17:01N 40°40' W 074°01'814.0
2018-Feb-22 16:28N 40°34' W 073°56'3 5.4
2018-Feb-22 16:00N 40°35' W 073°53'815.9
2018-Feb-22 15:30N 40°39' W 074°02'2 3.4
2018-Feb-22 15:01N 40°40' W 074°01'714.6
2018-Feb-22 14:30N 40°34' W 073°57'2 4.3
2018-Feb-22 13:59N 40°34' W 073°54'715.3
2018-Feb-22 13:30N 40°39' W 074°02'1 2.3
2018-Feb-22 13:01N 40°40' W 074°01'714.1
2018-Feb-22 12:30N 40°34' W 073°56'4 7.2
2018-Feb-22 12:00N 40°35' W 073°52'816.5
2018-Feb-22 11:30N 40°39' W 074°02'0 0.9
2018-Feb-22 11:00N 40°39' W 074°02'815.1
2018-Feb-22 10:30N 40°34' W 073°54'5 9.8
2018-Feb-22 10:00N 40°34' W 074°00'816.0
2018-Feb-22 09:30N 40°42' W 073°58'0 0.0
2018-Feb-22 03:20N 40°42' W 073°58'410.8
2018-Feb-22 03:00N 40°46' W 073°57'1 1.5
2018-Feb-22 02:30N 40°45' W 073°58'3 5.2
2018-Feb-22 02:00N 40°42' W 073°58'1 2.9
2018-Feb-22 01:31N 40°42' W 074°00'4 8.1
2018-Feb-22 01:00N 40°46' W 073°57'1 2.7
2018-Feb-22 00:30N 40°45' W 073°58'2 3.8
2018-Feb-22 00:00N 40°43' W 073°58'4 7.8
2018-Feb-21 23:30N 40°46' W 073°56'3 5.1
2018-Feb-21 23:00N 40°44' W 073°58'3 5.3
2018-Feb-21 22:31N 40°42' W 074°00'4 7.9
2018-Feb-21 22:00N 40°45' W 073°57'1 1.1
2018-Feb-21 21:30N 40°45' W 073°57'3 7.0
2018-Feb-21 21:01N 40°42' W 074°00'5 9.7
2018-Feb-21 20:29N 40°46' W 073°56'2 4.2
2018-Feb-21 20:01N 40°45' W 073°58'3 5.0
2018-Feb-21 19:31N 40°42' W 073°59'1 1.6
2018-Feb-21 19:00N 40°42' W 074°00'4 7.8
2018-Feb-21 18:30N 40°45' W 073°57'1 2.2
2018-Feb-21 18:00N 40°45' W 073°58'3 6.0
2018-Feb-21 17:30N 40°42' W 074°00'1 1.1
2018-Feb-21 17:00N 40°42' W 073°60'4 7.9
2018-Feb-21 16:30N 40°46' W 073°57'1 3.0
2018-Feb-21 16:01N 40°45' W 073°58'3 6.1
2018-Feb-21 15:30N 40°42' W 074°00'0 0.3
2018-Feb-21 15:01N 40°42' W 074°00'4 8.0
2018-Feb-21 14:30N 40°45' W 073°57'1 2.4
2018-Feb-21 14:00N 40°45' W 073°58'4 7.4
2018-Feb-21 13:31N 40°41' W 074°00'4 8.3
2018-Feb-21 13:00N 40°45' W 073°57'0 0.8
2018-Feb-21 12:30N 40°45' W 073°58'3 6.5
2018-Feb-21 12:00N 40°42' W 073°58'0 0.0
2018-Feb-21 11:30N 40°42' W 073°58'0 0.0
2018-Feb-20 21:47N 40°42' W 073°58'0 0.0
2018-Feb-20 21:31N 40°42' W 073°58'0 0.3
2018-Feb-20 21:01N 40°42' W 073°58'  
2018-Feb-16 02:57N 40°42' W 073°58'817.8
2018-Feb-16 02:30N 40°34' W 074°01'510.0
2018-Feb-16 01:59N 40°34' W 073°54'716.0
2018-Feb-16 01:30N 40°39' W 074°02'1 2.8
2018-Feb-16 01:01N 40°40' W 074°01'814.7
2018-Feb-16 00:30N 40°34' W 073°56'1 2.4
2018-Feb-15 23:59N 40°34' W 073°54'715.4
2018-Feb-15 23:30N 40°39' W 074°02'2 3.1
2018-Feb-15 23:00N 40°40' W 074°01'714.3
2018-Feb-15 22:29N 40°34' W 073°57'2 3.5
2018-Feb-15 21:58N 40°34' W 073°54'716.1
2018-Feb-15 21:31N 40°39' W 074°02'1 2.4
2018-Feb-15 21:01N 40°40' W 074°01'714.0
2018-Feb-15 20:30N 40°34' W 073°56'3 6.2
2018-Feb-15 19:59N 40°35' W 073°52'816.9
2018-Feb-15 19:30N 40°39' W 074°02'1 3.0
2018-Feb-15 19:01N 40°40' W 074°01'714.1
2018-Feb-15 18:30N 40°34' W 073°57'3 6.7
2018-Feb-15 17:59N 40°35' W 073°53'816.4
2018-Feb-15 17:30N 40°39' W 074°02'1 2.3
2018-Feb-15 17:01N 40°40' W 074°01'714.2
2018-Feb-15 16:29N 40°34' W 073°56'2 4.3
2018-Feb-15 16:00N 40°34' W 073°53'815.8
2018-Feb-15 15:31N 40°39' W 074°02'1 2.2
2018-Feb-15 15:01N 40°40' W 074°01'714.0
2018-Feb-15 14:29N 40°34' W 073°56'1 2.3
2018-Feb-15 14:00N 40°34' W 073°54'714.3
2018-Feb-15 13:30N 40°39' W 074°02'1 2.0
2018-Feb-15 13:01N 40°40' W 074°01'713.7
2018-Feb-15 12:29N 40°34' W 073°56'2 4.2
2018-Feb-15 12:01N 40°34' W 073°53'815.3
2018-Feb-15 11:30N 40°39' W 074°02'1 2.8
2018-Feb-15 11:01N 40°40' W 074°01'714.7
2018-Feb-15 10:30N 40°34' W 073°56'2 4.0
2018-Feb-15 10:00N 40°34' W 073°54'816.3
2018-Feb-15 09:31N 40°40' W 074°01'3 6.6
2018-Feb-15 09:00N 40°42' W 073°58'0 0.0
2018-Feb-15 02:57N 40°42' W 073°58'817.1
2018-Feb-15 02:29N 40°34' W 074°00'713.5
2018-Feb-15 02:00N 40°35' W 073°52'817.3
2018-Feb-15 01:30N 40°39' W 074°02'1 2.5
2018-Feb-15 01:01N 40°40' W 074°01'714.0
2018-Feb-15 00:29N 40°34' W 073°56'2 5.3
2018-Feb-15 00:00N 40°34' W 073°53'815.9
2018-Feb-14 23:31N 40°39' W 074°02'1 2.4
2018-Feb-14 23:01N 40°40' W 074°01'714.2
2018-Feb-14 22:30N 40°34' W 073°57'4 7.0
2018-Feb-14 22:00N 40°35' W 073°52'816.3
2018-Feb-14 21:29N 40°39' W 074°02'4 7.4
2018-Feb-14 21:01N 40°42' W 074°00'2 3.1
2018-Feb-14 20:31N 40°42' W 073°58'0 0.0
2018-Feb-14 20:00N 40°42' W 073°58'0 0.0
2018-Feb-14 19:31N 40°42' W 073°58'0 0.0
2018-Feb-14 19:01N 40°42' W 073°58'0 0.0
2018-Feb-14 18:31N 40°42' W 073°58'0 0.0
2018-Feb-14 18:00N 40°42' W 073°58'0 0.0
2018-Feb-14 17:31N 40°42' W 073°58'0 0.0
2018-Feb-14 17:00N 40°42' W 073°58'0 0.0
2018-Feb-14 16:30N 40°42' W 073°58'0 0.4
2018-Feb-14 16:01N 40°42' W 073°58'4 8.3
2018-Feb-14 15:30N 40°39' W 074°02'1 2.8
2018-Feb-14 15:01N 40°40' W 074°01'713.9
2018-Feb-14 14:30N 40°34' W 073°57'3 5.2
2018-Feb-14 14:00N 40°34' W 073°54'715.2
2018-Feb-14 13:31N 40°39' W 074°02'2 3.0
2018-Feb-14 13:01N 40°40' W 074°01'714.5
2018-Feb-14 12:30N 40°34' W 073°57'2 4.9
2018-Feb-14 12:00N 40°34' W 073°53'815.7
2018-Feb-14 11:30N 40°39' W 074°02'1 2.7
2018-Feb-14 11:00N 40°40' W 074°01'714.4
2018-Feb-14 10:30N 40°34' W 073°56'3 6.2
2018-Feb-14 10:00N 40°35' W 073°52'817.2
2018-Feb-14 09:31N 40°40' W 074°01'3 6.6
2018-Feb-14 09:00N 40°42' W 073°58'0 0.0
2018-Feb-14 03:03N 40°42' W 073°58'0 0.0
2018-Feb-14 03:00N 40°42' W 073°58'714.3
2018-Feb-14 02:30N 40°35' W 074°02'714.3
2018-Feb-14 01:59N 40°35' W 073°52'817.4
2018-Feb-14 01:30N 40°39' W 074°02'1 3.0
2018-Feb-14 01:01N 40°40' W 074°01'714.3
2018-Feb-14 00:30N 40°34' W 073°57'2 3.9
2018-Feb-14 00:00N 40°34' W 073°54'714.3
2018-Feb-13 23:30N 40°39' W 074°02'2 3.5
2018-Feb-13 23:01N 40°40' W 074°01'814.9
2018-Feb-13 22:29N 40°34' W 073°56'1 1.3
2018-Feb-13 22:00N 40°34' W 073°55'713.9
2018-Feb-13 21:30N 40°39' W 074°02'1 2.9
2018-Feb-13 21:01N 40°40' W 074°01'815.0
2018-Feb-13 20:30N 40°34' W 073°56'2 4.4
2018-Feb-13 20:00N 40°34' W 073°53'814.9
2018-Feb-13 19:29N 40°39' W 074°02'2 3.1
2018-Feb-13 19:00N 40°40' W 074°01'814.8
2018-Feb-13 18:29N 40°34' W 073°56'2 3.3
2018-Feb-13 18:00N 40°34' W 073°54'715.2
2018-Feb-13 17:31N 40°39' W 074°02'1 2.4
2018-Feb-13 17:00N 40°40' W 074°01'714.0
2018-Feb-13 16:28N 40°34' W 073°56'2 5.2
2018-Feb-13 16:00N 40°35' W 073°52'816.3
2018-Feb-13 15:30N 40°39' W 074°02'1 2.3
2018-Feb-13 15:00N 40°40' W 074°01'713.7
2018-Feb-13 14:30N 40°34' W 073°57'3 5.2
2018-Feb-13 14:00N 40°34' W 073°54'714.7
2018-Feb-13 13:30N 40°39' W 074°02'0 0.8
2018-Feb-13 13:01N 40°39' W 074°02'713.6
2018-Feb-13 12:29N 40°34' W 073°56'0 0.1
2018-Feb-13 12:00N 40°34' W 073°56'714.3
2018-Feb-13 11:31N 40°39' W 074°02'1 1.9
2018-Feb-13 11:00N 40°40' W 074°01'714.8
2018-Feb-13 10:30N 40°34' W 073°55'3 5.9
2018-Feb-13 10:00N 40°34' W 073°59'816.7
2018-Feb-13 09:31N 40°42' W 073°58'0 0.0
2018-Feb-13 09:00N 40°42' W 073°58'  

Dump ship's entire track history